Time;durP1;ratioP1;P1;durP2;ratioP2;P2;SDS_P1;SDS_P2;PMS_P1;PMS_P2;Temp;Humidity;BMP_temperature;BMP_pressure;BME280_temperature;BME280_humidity;BME280_pressure;Samples;Min_cycle;Max_cycle;Signal;HPM_P1;HPM_P2
2021/06/02 00:01:50;;;;;;;6.20;4.07;;;;;;;11.11;nan;101200.78;5030133;28;20511;-82
2021/06/02 00:04:19;;;;;;;6.28;3.80;;;;;;;10.96;nan;101206.25;5020113;28;20042;-80
2021/06/02 00:06:48;;;;;;;5.53;4.07;;;;;;;10.97;nan;101200.06;5031300;28;20491;-81
2021/06/02 00:09:16;;;;;;;9.63;4.82;;;;;;;10.93;nan;101215.13;5030526;28;20029;-79
2021/06/02 00:11:43;;;;;;;5.55;4.07;;;;;;;10.88;nan;101213.41;5031811;28;20128;-80
2021/06/02 00:14:11;;;;;;;8.80;4.50;;;;;;;10.87;nan;101216.97;5028452;28;20692;-80
2021/06/02 00:16:38;;;;;;;8.73;4.97;;;;;;;10.84;nan;101203.75;5014062;28;20600;-79
2021/06/02 00:19:05;;;;;;;7.15;4.20;;;;;;;10.79;nan;101208.25;5018767;28;20505;-80
2021/06/02 00:21:33;;;;;;;10.40;4.53;;;;;;;10.68;nan;101216.31;5013671;28;20045;-79
2021/06/02 00:24:00;;;;;;;11.95;5.97;;;;;;;10.69;nan;101218.94;5028717;28;20148;-80
2021/06/02 00:26:33;;;;;;;8.45;4.63;;;;;;;10.59;nan;101216.41;5031755;28;20132;-81
2021/06/02 00:29:03;;;;;;;6.22;4.35;;;;;;;10.60;nan;101207.59;4996387;28;20048;-80
2021/06/02 00:31:30;;;;;;;11.25;6.97;;;;;;;10.52;nan;101206.81;5025294;28;20537;-78
2021/06/02 00:33:57;;;;;;;10.13;5.82;;;;;;;10.41;nan;101213.06;5012480;28;20048;-79
2021/06/02 00:36:26;;;;;;;10.32;6.03;;;;;;;10.30;nan;101199.13;5030462;28;20482;-78
2021/06/02 00:38:53;;;;;;;12.45;6.28;;;;;;;10.32;nan;101201.75;5029270;28;20390;-81
2021/06/02 00:41:20;;;;;;;15.70;6.30;;;;;;;10.30;nan;101207.03;5014922;28;20050;-80
2021/06/02 00:43:47;;;;;;;9.93;6.55;;;;;;;10.30;nan;101208.81;5023861;28;20030;-80
2021/06/02 00:46:15;;;;;;;11.48;5.72;;;;;;;10.15;nan;101208.03;5013124;28;20052;-79
2021/06/02 00:48:43;;;;;;;9.93;6.63;;;;;;;10.18;nan;101211.56;5028708;28;20040;-80
2021/06/02 00:51:10;;;;;;;12.85;7.72;;;;;;;9.98;nan;101207.31;5043854;28;20033;-79
2021/06/02 00:53:37;;;;;;;10.43;6.97;;;;;;;10.03;nan;101212.56;5023921;28;20041;-80
2021/06/02 00:56:07;;;;;;;10.23;7.32;;;;;;;10.00;nan;101215.22;5021572;28;20060;-80
2021/06/02 00:58:43;;;;;;;11.05;7.50;;;;;;;9.99;nan;101209.06;5011953;28;20045;-80
2021/06/02 01:10:11;;;;;;;15.77;9.73;;;;;;;9.75;nan;101231.31;5016258;28;20717;-80
2021/06/02 01:12:41;;;;;;;12.85;7.97;;;;;;;9.74;nan;101228.66;5026286;28;20041;-79
2021/06/02 01:15:08;;;;;;;15.48;9.48;;;;;;;9.73;nan;101237.44;5027169;28;20405;-80
2021/06/02 01:17:35;;;;;;;13.82;8.98;;;;;;;9.66;nan;101231.34;5028268;28;20047;-80
2021/06/02 01:20:04;;;;;;;15.98;8.90;;;;;;;9.67;nan;101238.41;5011556;28;20045;-80
2021/06/02 01:22:34;;;;;;;12.52;8.43;;;;;;;9.56;nan;101246.38;5012247;28;20045;-80
2021/06/02 01:25:10;;;;;;;18.98;10.25;;;;;;;9.42;nan;101250.88;5020480;28;20037;-79
2021/06/02 01:27:38;;;;;;;16.77;10.48;;;;;;;9.44;nan;101249.09;5032162;28;20056;-80
2021/06/02 01:30:10;;;;;;;12.70;8.35;;;;;;;9.38;nan;101248.25;5027123;28;20038;-80
2021/06/02 01:33:11;;;;;;;16.93;9.77;;;;;;;9.41;nan;101253.50;5026790;28;20052;-78
2021/06/02 01:35:50;;;;;;;12.75;8.38;;;;;;;9.44;nan;101257.00;5027532;28;20038;-81
2021/06/02 01:38:39;;;;;;;14.95;9.50;;;;;;;9.32;nan;101249.16;5025085;28;20056;-80
2021/06/02 01:41:24;;;;;;;14.45;8.57;;;;;;;9.29;nan;101265.00;5025313;28;20044;-80
2021/06/02 01:44:29;;;;;;;13.82;8.35;;;;;;;9.30;nan;101262.34;5026523;28;20045;-81
2021/06/02 01:47:32;;;;;;;14.15;9.30;;;;;;;9.25;nan;101255.38;5028680;28;20036;-78
2021/06/02 01:50:41;;;;;;;15.40;8.93;;;;;;;9.20;nan;101257.16;4998679;28;20037;-81
2021/06/02 01:53:47;;;;;;;20.33;10.43;;;;;;;9.11;nan;101254.56;5043053;28;20402;-80
2021/06/02 01:56:32;;;;;;;12.13;7.43;;;;;;;8.99;nan;101255.47;5011065;28;20040;-80
2021/06/02 01:59:25;;;;;;;16.53;9.53;;;;;;;8.94;nan;101249.38;5020111;28;20049;-81
2021/06/02 02:02:29;;;;;;;19.30;10.90;;;;;;;8.94;nan;101250.25;5029142;28;20242;-80
2021/06/02 02:05:16;;;;;;;15.37;9.63;;;;;;;8.87;nan;101253.78;5025090;28;20041;-79
2021/06/02 02:08:10;;;;;;;17.93;9.43;;;;;;;8.84;nan;101235.38;5012472;28;20039;-79
2021/06/02 02:10:45;;;;;;;18.30;11.10;;;;;;;8.87;nan;101245.00;5023876;28;20051;-80
2021/06/02 02:13:33;;;;;;;19.53;10.93;;;;;;;8.89;nan;101233.56;5011321;28;20041;-80
2021/06/02 02:16:26;;;;;;;19.20;11.93;;;;;;;8.86;nan;101228.31;5028765;28;20040;-79
2021/06/02 02:19:23;;;;;;;20.53;11.80;;;;;;;8.87;nan;101229.19;5028184;28;20051;-81
2021/06/02 02:22:12;;;;;;;21.97;13.13;;;;;;;8.80;nan;101227.47;5011335;28;20429;-80
2021/06/02 02:24:46;;;;;;;20.70;12.37;;;;;;;8.83;nan;101244.16;5011307;28;20069;-78
2021/06/02 02:27:31;;;;;;;19.50;12.32;;;;;;;8.72;nan;101244.16;5029147;28;20040;-79
2021/06/02 02:30:02;;;;;;;21.80;13.83;;;;;;;8.73;nan;101247.69;5027087;28;20029;-81
2021/06/02 02:32:41;;;;;;;24.87;13.40;;;;;;;8.82;nan;101252.03;5027773;28;20049;-79
2021/06/02 02:35:29;;;;;;;24.87;12.83;;;;;;;8.88;nan;101252.91;5025521;28;20034;-80
2021/06/02 02:38:36;;;;;;;27.83;15.13;;;;;;;8.98;nan;101251.97;5028213;28;20601;-81
2021/06/02 02:41:10;;;;;;;24.90;13.83;;;;;;;8.99;nan;101255.47;5010816;28;20037;-80
2021/06/02 02:44:01;;;;;;;21.83;13.48;;;;;;;8.97;nan;101244.06;5010086;28;20050;-80
2021/06/02 02:46:33;;;;;;;26.40;14.27;;;;;;;9.09;nan;101251.06;5004834;28;20044;-81
2021/06/02 02:49:11;;;;;;;25.80;14.30;;;;;;;9.11;nan;101262.47;5002691;28;20033;-80
2021/06/02 02:52:06;;;;;;;21.10;13.70;;;;;;;9.15;nan;101270.34;5017504;28;20044;-80
2021/06/02 02:54:53;;;;;;;20.63;12.50;;;;;;;9.23;nan;101267.66;5001599;28;20048;-79
2021/06/02 02:57:30;;;;;;;23.77;14.13;;;;;;;9.19;nan;101272.09;4991694;28;20049;-81
2021/06/02 03:00:01;;;;;;;23.43;13.80;;;;;;;9.24;nan;101272.06;5026084;28;20029;-80
2021/06/02 03:02:36;;;;;;;23.57;15.43;;;;;;;9.40;nan;101271.09;5027311;28;20040;-80
2021/06/02 03:05:06;;;;;;;20.57;13.60;;;;;;;9.45;nan;101256.13;5025149;28;20045;-79
2021/06/02 03:07:35;;;;;;;21.83;13.80;;;;;;;9.53;nan;101251.66;5027569;28;20399;-80
2021/06/02 03:10:09;;;;;;;20.57;12.97;;;;;;;9.55;nan;101264.84;5024262;28;20038;-80
2021/06/02 03:12:58;;;;;;;19.70;13.18;;;;;;;9.43;nan;101263.19;5011704;28;20034;-79
2021/06/02 03:15:51;;;;;;;20.80;11.97;;;;;;;9.51;nan;101260.50;5008968;28;20060;-79
2021/06/02 03:18:37;;;;;;;23.60;11.80;;;;;;;9.70;nan;101263.88;5009729;28;20045;-79
2021/06/02 03:21:13;;;;;;;17.55;11.65;;;;;;;9.73;nan;101253.28;5027706;28;20613;-79
2021/06/02 03:24:09;;;;;;;19.65;11.30;;;;;;;9.64;nan;101250.72;5027429;28;20033;-79
2021/06/02 03:26:40;;;;;;;25.35;13.35;;;;;;;9.68;nan;101249.81;5026072;28;20049;-79
2021/06/02 03:29:13;;;;;;;18.20;11.68;;;;;;;9.69;nan;101249.81;5020979;28;20044;-80
2021/06/02 03:31:51;;;;;;;20.50;11.88;;;;;;;9.69;nan;101247.16;5028443;28;20045;-80
2021/06/02 03:34:22;;;;;;;19.80;11.57;;;;;;;9.62;nan;101248.09;5027229;28;20505;-79
2021/06/02 03:37:04;;;;;;;19.88;11.20;;;;;;;9.56;nan;101246.38;5015660;28;20034;-79
2021/06/02 03:40:02;;;;;;;21.95;13.32;;;;;;;9.49;nan;101244.66;5030175;28;20492;-79
2021/06/02 03:42:58;;;;;;;17.58;11.55;;;;;;;9.48;nan;101237.63;5046622;28;20048;-78
2021/06/02 03:45:33;;;;;;;17.10;11.43;;;;;;;9.57;nan;101247.25;5026011;28;20050;-79
2021/06/02 03:48:40;;;;;;;21.25;12.27;;;;;;;9.58;nan;101244.63;5031438;28;20029;-79
2021/06/02 03:51:17;;;;;;;19.33;12.10;;;;;;;9.58;nan;101255.16;5022101;28;20034;-79
2021/06/02 03:54:10;;;;;;;19.58;12.50;;;;;;;9.62;nan;101255.13;5011426;28;20047;-78
2021/06/02 03:56:52;;;;;;;21.85;12.90;;;;;;;9.77;nan;101270.88;5027926;28;20494;-80
2021/06/02 03:59:32;;;;;;;20.10;13.07;;;;;;;9.86;nan;101270.78;5027850;28;20038;-80
2021/06/02 04:02:06;;;;;;;21.13;12.50;;;;;;;9.91;nan;101268.09;5020868;28;20048;-79
2021/06/02 04:04:41;;;;;;;19.40;13.27;;;;;;;9.90;nan;101274.25;5007573;28;20048;-79
2021/06/02 04:07:28;;;;;;;;;;;;;;;9.97;nan;101278.63;5031036;28;20037;-78
2021/06/02 04:10:35;;;;;;;22.80;11.82;;;;;;;10.09;nan;101279.41;5019619;28;19936;-80
2021/06/02 04:13:40;;;;;;;17.08;11.77;;;;;;;10.16;nan;101286.34;5004522;28;20060;-79
2021/06/02 04:16:10;;;;;;;20.30;14.25;;;;;;;10.25;nan;101282.78;5024389;28;20038;-80
2021/06/02 04:18:37;;;;;;;22.23;12.65;;;;;;;10.27;nan;101283.69;5026581;28;20050;-79
2021/06/02 04:21:05;;;;;;;18.40;12.10;;;;;;;10.27;nan;101286.31;5022146;28;20046;-79
2021/06/02 04:23:33;;;;;;;20.60;12.57;;;;;;;10.26;nan;101281.94;5009345;28;20045;-80
2021/06/02 04:26:02;;;;;;;20.58;12.70;;;;;;;10.31;nan;101295.94;5010587;28;20039;-79
2021/06/02 04:28:32;;;;;;;20.65;13.85;;;;;;;10.22;nan;101289.84;5041690;28;20053;-78
2021/06/02 04:31:14;;;;;;;18.15;12.02;;;;;;;10.38;nan;101291.50;5028193;28;20487;-79
2021/06/02 04:33:43;;;;;;;18.42;12.70;;;;;;;10.44;nan;101294.09;5029672;28;20392;-79
2021/06/02 04:36:14;;;;;;;17.00;11.70;;;;;;;10.50;nan;101298.41;5027686;28;20037;-79
2021/06/02 04:38:41;;;;;;;20.50;11.90;;;;;;;10.50;nan;101301.91;5023427;28;20068;-79
2021/06/02 04:41:09;;;;;;;21.42;12.02;;;;;;;10.51;nan;101305.44;5020510;28;20396;-80
2021/06/02 04:43:38;;;;;;;18.40;12.23;;;;;;;10.66;nan;101313.22;5009880;28;20418;-80
2021/06/02 04:46:07;;;;;;;17.50;11.25;;;;;;;10.55;nan;101302.75;5029362;28;20043;-79
2021/06/02 04:48:34;;;;;;;18.23;11.27;;;;;;;10.69;nan;101305.28;5022628;28;20045;-80
2021/06/02 04:51:04;;;;;;;14.35;9.60;;;;;;;10.75;nan;101306.94;5013951;28;20398;-79
2021/06/02 04:53:52;;;;;;;14.50;10.65;;;;;;;10.80;nan;101311.31;5028956;28;20540;-79
2021/06/02 04:56:59;;;;;;;17.40;10.82;;;;;;;10.92;nan;101310.28;5029744;28;20044;-79
2021/06/02 05:00:04;;;;;;;17.25;10.65;;;;;;;10.97;nan;101304.06;5026151;28;20026;-79
2021/06/02 05:02:49;;;;;;;16.23;10.40;;;;;;;10.98;nan;101310.22;5028685;28;20499;-80
2021/06/02 05:05:49;;;;;;;13.98;10.25;;;;;;;10.91;nan;101309.41;5026516;28;20038;-81
2021/06/02 05:08:35;;;;;;;13.80;9.90;;;;;;;10.91;nan;101306.75;5012711;28;20055;-79
2021/06/02 05:11:19;;;;;;;15.27;11.25;;;;;;;10.89;nan;101312.97;5029848;28;20037;-79
2021/06/02 05:14:08;;;;;;;12.05;9.10;;;;;;;10.86;nan;101308.59;5024437;28;20045;-78
2021/06/02 05:17:12;;;;;;;19.92;11.73;;;;;;;11.02;nan;101308.44;5030912;28;20063;-79
2021/06/02 05:20:02;;;;;;;14.50;9.88;;;;;;;11.09;nan;101312.72;5012173;28;20060;-80
2021/06/02 05:23:07;;;;;;;14.52;9.43;;;;;;;11.13;nan;101319.75;5028551;28;20391;-79
2021/06/02 05:25:56;;;;;;;13.82;9.23;;;;;;;11.14;nan;101314.44;5045037;28;20086;-79
2021/06/02 05:28:57;;;;;;;15.00;10.18;;;;;;;11.02;nan;101321.66;5029362;28;20705;-79
2021/06/02 05:31:44;;;;;;;15.02;10.20;;;;;;;11.04;nan;101318.09;5027484;28;20033;-79
2021/06/02 05:34:36;;;;;;;13.38;9.18;;;;;;;11.25;nan;101316.94;5023975;28;20048;-78
2021/06/02 05:37:18;;;;;;;14.85;9.85;;;;;;;11.32;nan;101325.69;5026611;28;20586;-79
2021/06/02 05:39:55;;;;;;;14.55;8.77;;;;;;;11.14;nan;101330.31;5010898;28;20030;-81
2021/06/02 05:42:39;;;;;;;13.68;9.07;;;;;;;11.26;nan;101327.50;5026630;28;20408;-79
2021/06/02 05:45:45;;;;;;;14.15;8.20;;;;;;;11.28;nan;101327.50;5012257;28;20036;-79
2021/06/02 05:48:30;;;;;;;15.55;9.57;;;;;;;11.35;nan;101320.34;5014436;28;20045;-79
2021/06/02 05:51:00;;;;;;;14.02;9.05;;;;;;;11.38;nan;101320.31;5032433;28;20026;-78
2021/06/02 05:53:56;;;;;;;15.27;10.18;;;;;;;11.21;nan;101316.13;5022310;28;20045;-78
2021/06/02 05:56:26;;;;;;;13.15;8.57;;;;;;;11.21;nan;101324.03;5018150;28;20030;-80
2021/06/02 05:59:11;;;;;;;13.52;9.43;;;;;;;11.91;nan;101318.69;5027138;28;20040;-79
2021/06/02 06:01:53;;;;;;;13.25;7.90;;;;;;;13.55;nan;101316.53;5023707;28;20037;-79
2021/06/02 06:04:38;;;;;;;11.63;7.60;;;;;;;14.32;nan;101311.13;5024830;28;20040;-78
2021/06/02 06:07:26;;;;;;;10.52;7.22;;;;;;;14.55;nan;101314.09;5024484;28;20038;-80
2021/06/02 06:10:08;;;;;;;12.95;8.30;;;;;;;13.46;nan;101318.47;5007807;28;20048;-80
2021/06/02 06:13:06;;;;;;;14.40;8.50;;;;;;;13.49;nan;101318.41;5017794;28;20406;-80
2021/06/02 06:16:01;;;;;;;13.70;8.35;;;;;;;13.18;nan;101317.25;5021291;28;20041;-78
2021/06/02 06:19:00;;;;;;;11.43;7.78;;;;;;;13.18;nan;101320.78;5018053;28;20055;-78
2021/06/02 06:21:41;;;;;;;13.02;8.43;;;;;;;12.62;nan;101322.78;5038564;28;20533;-80
2021/06/02 06:24:12;;;;;;;11.65;9.35;;;;;;;12.71;nan;101331.47;5009404;28;20029;-79
2021/06/02 06:26:51;;;;;;;13.23;8.85;;;;;;;12.66;nan;101328.91;5025073;28;20046;-77
2021/06/02 06:29:29;;;;;;;13.52;8.35;;;;;;;12.38;nan;101334.69;5029886;28;20040;-79
2021/06/02 06:31:57;;;;;;;12.63;8.88;;;;;;;12.16;nan;101333.28;5027582;28;20041;-81
2021/06/02 06:34:27;;;;;;;16.08;9.50;;;;;;;12.35;nan;101325.91;5016340;28;20037;-81
2021/06/02 06:36:56;;;;;;;17.38;9.98;;;;;;;12.28;nan;101332.25;5029661;28;20034;-80
2021/06/02 06:39:44;;;;;;;17.15;9.55;;;;;;;12.42;nan;101335.50;5026996;28;20079;-80
2021/06/02 06:42:13;;;;;;;14.30;9.13;;;;;;;12.51;nan;101334.47;5021155;28;20035;-80
2021/06/02 06:44:42;;;;;;;16.45;9.20;;;;;;;12.71;nan;101332.34;5025293;28;20038;-81
2021/06/02 06:47:12;;;;;;;13.60;9.05;;;;;;;12.72;nan;101328.78;5027682;28;20044;-81
2021/06/02 06:49:40;;;;;;;13.80;9.35;;;;;;;12.46;nan;101331.03;5011336;28;20037;-82
2021/06/02 06:52:07;;;;;;;12.48;8.68;;;;;;;12.89;nan;101332.00;5026730;28;20044;-80
2021/06/02 06:54:35;;;;;;;17.92;10.13;;;;;;;13.23;nan;101337.53;5011267;28;20041;-81
2021/06/02 06:57:02;;;;;;;13.48;9.82;;;;;;;13.62;nan;101332.28;5010369;28;20499;-80
2021/06/02 06:59:29;;;;;;;17.00;9.57;;;;;;;13.83;nan;101330.03;5024558;28;20417;-81
2021/06/02 07:01:56;;;;;;;13.98;9.27;;;;;;;13.91;nan;101325.44;5029645;28;20067;-82
2021/06/02 07:04:23;;;;;;;11.48;8.43;;;;;;;14.42;nan;101327.72;5033457;28;20035;-80
2021/06/02 07:06:51;;;;;;;10.13;8.07;;;;;;;14.63;nan;101329.84;5014001;28;20038;-78
2021/06/02 07:09:18;;;;;;;13.50;8.45;;;;;;;14.07;nan;101326.81;5027163;28;20044;-80
2021/06/02 07:11:46;;;;;;;12.10;7.90;;;;;;;14.03;nan;101333.97;5038132;28;20500;-80
2021/06/02 07:14:19;;;;;;;11.57;7.95;;;;;;;14.06;nan;101333.91;5013563;28;20723;-81
2021/06/02 07:16:46;;;;;;;13.80;7.45;;;;;;;13.85;nan;101331.75;5035494;28;20509;-80
2021/06/02 07:19:13;;;;;;;10.18;7.00;;;;;;;13.97;nan;101330.59;5030478;28;20040;-78
2021/06/02 07:21:43;;;;;;;9.60;6.60;;;;;;;14.01;nan;101327.81;5017193;28;20037;-79
2021/06/02 07:24:10;;;;;;;9.82;7.95;;;;;;;13.94;nan;101336.84;5029275;28;20047;-79
2021/06/02 07:26:39;;;;;;;12.57;7.25;;;;;;;14.11;nan;101332.91;5028086;28;20047;-81
2021/06/02 07:29:25;;;;;;;10.55;7.63;;;;;;;14.37;nan;101341.97;5025539;28;20044;-80
2021/06/02 07:31:52;;;;;;;14.45;7.55;;;;;;;14.59;nan;101338.81;5034451;28;20040;-81
2021/06/02 07:34:21;;;;;;;12.63;6.50;;;;;;;14.99;nan;101346.59;5012209;28;20039;-80
2021/06/02 07:36:49;;;;;;;10.27;6.45;;;;;;;15.33;nan;101346.50;5035631;28;20397;-81
2021/06/02 07:39:16;;;;;;;8.88;6.20;;;;;;;15.65;nan;101337.59;5034603;28;20039;-80
2021/06/02 07:41:43;;;;;;;9.32;6.60;;;;;;;15.56;nan;101342.31;5019955;28;20044;-80
2021/06/02 07:44:10;;;;;;;9.38;6.10;;;;;;;15.66;nan;101352.66;5030306;28;20029;-80
2021/06/02 07:46:37;;;;;;;8.13;6.07;;;;;;;15.81;nan;101355.75;5032824;28;20045;-80
2021/06/02 07:49:05;;;;;;;7.55;5.47;;;;;;;16.29;nan;101347.97;5036081;28;20037;-81
2021/06/02 07:51:32;;;;;;;8.02;5.95;;;;;;;16.39;nan;101346.75;5020236;28;20045;-79
2021/06/02 07:53:59;;;;;;;9.48;5.70;;;;;;;16.55;nan;101336.44;5028871;28;20048;-80
2021/06/02 07:56:26;;;;;;;10.15;5.75;;;;;;;16.75;nan;101357.13;5030422;28;20425;-82
2021/06/02 07:58:53;;;;;;;7.50;6.07;;;;;;;16.64;nan;101357.44;5023368;28;20040;-81
2021/06/02 08:01:20;;;;;;;8.30;5.53;;;;;;;16.55;nan;101360.44;5027823;28;20537;-80
2021/06/02 08:03:47;;;;;;;8.20;5.57;;;;;;;17.08;nan;101360.41;5023313;28;20041;-79
2021/06/02 08:06:14;;;;;;;8.82;5.85;;;;;;;17.33;nan;101363.91;5052082;28;20055;-78
2021/06/02 08:08:41;;;;;;;8.77;6.28;;;;;;;17.42;nan;101363.56;5015211;28;20048;-80
2021/06/02 08:11:08;;;;;;;8.40;5.93;;;;;;;17.85;nan;101361.06;5030846;28;20108;-80
2021/06/02 08:13:35;;;;;;;8.70;5.78;;;;;;;18.18;nan;101353.50;5031014;28;20045;-79
2021/06/02 08:16:03;;;;;;;7.07;5.78;;;;;;;18.28;nan;101361.09;5032331;28;20037;-79
2021/06/02 08:18:30;;;;;;;7.00;5.60;;;;;;;18.18;nan;101351.69;5019137;28;20053;-80
2021/06/02 08:20:57;;;;;;;7.75;5.35;;;;;;;18.67;nan;101347.00;5029256;28;20044;-79
2021/06/02 08:23:23;;;;;;;9.98;6.10;;;;;;;18.78;nan;101349.19;5011127;28;20419;-79
2021/06/02 08:25:51;;;;;;;6.68;6.03;;;;;;;19.06;nan;101346.16;5054885;28;20578;-80
2021/06/02 08:28:20;;;;;;;9.48;5.65;;;;;;;19.31;nan;101338.75;5030261;28;20041;-80
2021/06/02 08:30:48;;;;;;;8.40;5.82;;;;;;;18.74;nan;101347.56;5020150;28;20079;-81
2021/06/02 08:33:15;;;;;;;7.35;5.88;;;;;;;18.97;nan;101341.22;5041137;28;20041;-80
2021/06/02 08:35:43;;;;;;;8.00;6.28;;;;;;;19.32;nan;101343.16;5034711;28;20042;-80
2021/06/02 08:38:10;;;;;;;7.95;5.75;;;;;;;19.63;nan;101333.75;5016053;28;20040;-80
2021/06/02 08:40:38;;;;;;;6.03;5.43;;;;;;;19.84;nan;101332.72;5029196;28;20056;-78
2021/06/02 08:43:06;;;;;;;8.18;6.45;;;;;;;19.51;nan;101340.53;5035518;28;20033;-79
2021/06/02 08:45:32;;;;;;;6.63;5.93;;;;;;;19.64;nan;101333.66;5032256;28;20045;-79
2021/06/02 08:47:59;;;;;;;7.00;6.30;;;;;;;19.75;nan;101322.41;5026465;28;20045;-78
2021/06/02 08:50:26;;;;;;;6.90;5.95;;;;;;;20.05;nan;101322.75;5031391;28;20560;-78
2021/06/02 08:52:54;;;;;;;8.05;5.88;;;;;;;20.03;nan;101331.81;5048946;28;20040;-79
2021/06/02 08:55:22;;;;;;;7.50;5.90;;;;;;;19.79;nan;101329.38;5033493;28;20037;-81
2021/06/02 08:57:50;;;;;;;7.43;6.25;;;;;;;19.68;nan;101324.56;5030452;28;20041;-80
2021/06/02 09:00:20;;;;;;;8.23;6.70;;;;;;;19.85;nan;101333.59;5027605;28;20045;-80
2021/06/02 09:02:53;;;;;;;8.25;6.50;;;;;;;20.19;nan;101322.94;5033745;28;20414;-78
2021/06/02 09:05:22;;;;;;;7.53;5.93;;;;;;;20.04;nan;101333.56;5012509;28;20063;-81
2021/06/02 09:07:50;;;;;;;9.20;7.28;;;;;;;20.21;nan;101331.78;5034894;28;20426;-79
2021/06/02 09:10:18;;;;;;;7.30;6.60;;;;;;;20.43;nan;101334.31;5012515;28;20052;-79
2021/06/02 09:12:53;;;;;;;8.32;6.72;;;;;;;20.25;nan;101319.06;5040160;28;20041;-78
2021/06/02 09:15:20;;;;;;;7.82;6.90;;;;;;;20.25;nan;101329.78;5026204;28;20035;-80
2021/06/02 09:17:47;;;;;;;7.60;6.80;;;;;;;20.73;nan;101328.28;5040728;28;20418;-80
2021/06/02 09:20:31;;;;;;;9.13;7.10;;;;;;;20.90;nan;101330.09;5029867;28;20041;-79
2021/06/02 09:22:59;;;;;;;8.32;6.88;;;;;;;20.50;nan;101322.28;5016725;28;20030;-82
2021/06/02 09:25:27;;;;;;;6.95;6.25;;;;;;;20.31;nan;101315.22;5032281;28;20045;-81
2021/06/02 09:27:58;;;;;;;7.80;6.88;;;;;;;20.70;nan;101323.94;5005603;28;20064;-79
2021/06/02 09:30:28;;;;;;;8.30;6.25;;;;;;;20.91;nan;101318.38;5023086;28;20038;-80
2021/06/02 09:32:59;;;;;;;8.10;6.95;;;;;;;21.24;nan;101316.56;5028492;28;20063;-79
2021/06/02 09:35:41;;;;;;;8.20;7.15;;;;;;;21.27;nan;101321.84;5017137;28;20040;-80
2021/06/02 09:38:22;;;;;;;30.20;9.20;;;;;;;21.48;nan;101317.09;5023186;28;20681;-80
2021/06/02 09:40:54;;;;;;;9.93;6.82;;;;;;;21.20;nan;101320.41;5034326;28;20034;-79
2021/06/02 09:43:31;;;;;;;11.15;7.72;;;;;;;21.39;nan;101322.09;5033098;28;20072;-78
2021/06/02 09:46:03;;;;;;;7.82;6.47;;;;;;;21.75;nan;101329.94;5022418;28;20038;-79
2021/06/02 09:48:47;;;;;;;16.70;8.90;;;;;;;21.43;nan;101332.59;5022311;28;20421;-78
2021/06/02 09:51:32;;;;;;;7.60;6.80;;;;;;;21.64;nan;101326.03;5021569;28;20394;-78
2021/06/02 09:54:01;;;;;;;9.45;7.50;;;;;;;21.81;nan;101325.06;5032391;28;20045;-79
2021/06/02 09:56:42;;;;;;;8.18;6.90;;;;;;;21.88;nan;101325.59;5022321;28;20046;-80
2021/06/02 09:59:11;;;;;;;9.43;7.70;;;;;;;21.48;nan;101330.53;5020591;28;20506;-79
2021/06/02 10:02:14;;;;;;;21.23;8.52;;;;;;;21.77;nan;101330.69;5025338;28;20689;-81
2021/06/02 10:04:42;;;;;;;9.75;8.50;;;;;;;22.18;nan;101334.63;5002769;28;20064;-80
2021/06/02 10:07:20;;;;;;;9.15;6.97;;;;;;;21.75;nan;101344.25;5029698;28;20421;-80
2021/06/02 10:09:48;;;;;;;9.15;8.00;;;;;;;21.69;nan;101336.50;5019950;28;20491;-79
2021/06/02 10:12:15;;;;;;;9.75;7.28;;;;;;;22.19;nan;101336.34;5035929;28;20043;-80
2021/06/02 10:14:54;;;;;;;8.90;7.55;;;;;;;22.25;nan;101345.03;4997155;28;20494;-79
2021/06/02 10:17:28;;;;;;;9.48;7.78;;;;;;;22.24;nan;101340.59;5012104;28;21498;-78
2021/06/02 10:19:58;;;;;;;9.48;8.45;;;;;;;22.39;nan;101332.50;5022927;28;20040;-79
2021/06/02 10:22:29;;;;;;;10.25;7.85;;;;;;;22.19;nan;101347.13;5013388;28;20041;-80
2021/06/02 10:24:58;;;;;;;9.98;8.55;;;;;;;22.52;nan;101339.84;5030370;28;20572;-78
2021/06/02 10:27:26;;;;;;;10.93;8.18;;;;;;;22.45;nan;101339.38;4995716;28;20525;-78
2021/06/02 10:29:53;;;;;;;7.90;6.93;;;;;;;22.77;nan;101342.78;5031926;28;20033;-79
2021/06/02 10:32:21;;;;;;;7.95;5.90;;;;;;;23.03;nan;101344.78;5034111;28;20025;-79
2021/06/02 10:34:48;;;;;;;7.07;5.95;;;;;;;22.99;nan;101337.88;5024682;28;20067;-79
2021/06/02 10:37:16;;;;;;;6.72;5.82;;;;;;;22.75;nan;101347.41;5004095;28;20050;-80
2021/06/02 10:39:54;;;;;;;6.88;5.63;;;;;;;23.29;nan;101337.81;5023196;28;20029;-79
2021/06/02 10:42:33;;;;;;;5.80;5.28;;;;;;;23.44;nan;101341.34;5019956;28;20033;-80
2021/06/02 10:45:05;;;;;;;6.28;5.68;;;;;;;23.15;nan;101351.28;5005501;28;20055;-79
2021/06/02 10:47:32;;;;;;;7.95;5.47;;;;;;;23.37;nan;101326.50;5007894;28;20409;-79
2021/06/02 10:49:59;;;;;;;6.03;4.90;;;;;;;23.77;nan;101342.88;5020634;28;20061;-78
2021/06/02 10:52:41;;;;;;;6.03;5.40;;;;;;;23.50;nan;101334.69;5015196;28;20037;-81
2021/06/02 10:55:37;;;;;;;6.07;5.47;;;;;;;23.79;nan;101335.53;5026749;28;20044;-79
2021/06/02 10:58:13;;;;;;;7.85;5.70;;;;;;;23.07;nan;101336.53;5034957;28;20033;-80
2021/06/02 11:00:40;;;;;;;6.90;5.15;;;;;;;23.13;nan;101330.78;5028755;28;20514;-80
2021/06/02 11:03:35;;;;;;;5.93;5.28;;;;;;;23.47;nan;101334.91;5028565;28;20029;-79
2021/06/02 11:06:14;;;;;;;6.72;4.93;;;;;;;24.08;nan;101328.25;5026146;28;20059;-80
2021/06/02 11:08:47;;;;;;;6.50;5.50;;;;;;;23.99;nan;101326.16;5015202;28;20056;-80
2021/06/02 11:11:28;;;;;;;10.23;6.13;;;;;;;24.04;nan;101326.69;5026461;28;20044;-80
2021/06/02 11:14:15;;;;;;;6.88;5.00;;;;;;;24.16;nan;101325.91;5033289;28;20036;-80
2021/06/02 11:16:47;;;;;;;6.93;5.13;;;;;;;23.73;nan;101335.97;5012622;28;20052;-80
2021/06/02 11:19:19;;;;;;;6.47;4.70;;;;;;;23.77;nan;101322.16;5026803;28;20482;-80
2021/06/02 11:21:51;;;;;;;6.05;4.70;;;;;;;23.73;nan;101323.34;5009051;28;20044;-79
2021/06/02 11:24:30;;;;;;;6.20;4.67;;;;;;;23.79;nan;101324.75;5028503;28;20538;-79
2021/06/02 11:27:16;;;;;;;5.65;4.60;;;;;;;24.05;nan;101328.47;5029961;28;20276;-80
2021/06/02 11:29:53;;;;;;;7.38;5.80;;;;;;;24.12;nan;101321.66;5032772;28;20045;-79
2021/06/02 11:32:31;;;;;;;6.15;5.00;;;;;;;24.33;nan;101314.00;5026815;28;20029;-81
2021/06/02 11:35:00;;;;;;;6.38;5.05;;;;;;;24.33;nan;101311.31;5035872;28;20037;-81
2021/06/02 11:37:29;;;;;;;6.03;5.43;;;;;;;23.74;nan;101308.88;4999988;28;20050;-80
2021/06/02 11:40:07;;;;;;;6.05;4.95;;;;;;;23.97;nan;101314.59;5033310;28;20382;-79
2021/06/02 11:42:36;;;;;;;5.63;4.80;;;;;;;24.12;nan;101325.22;5015784;28;20037;-80
2021/06/02 11:45:15;;;;;;;5.30;3.90;;;;;;;24.45;nan;101323.09;5033687;28;20433;-81
2021/06/02 11:47:46;;;;;;;5.65;3.60;;;;;;;24.46;nan;101316.72;5034648;28;20055;-80
2021/06/02 11:50:15;;;;;;;6.47;4.38;;;;;;;24.19;nan;101322.13;5023093;28;20560;-80
2021/06/02 11:52:45;;;;;;;5.00;4.20;;;;;;;24.12;nan;101314.41;5028742;28;20536;-83
2021/06/02 11:55:14;;;;;;;5.20;4.30;;;;;;;24.47;nan;101311.22;5041041;28;20371;-79
2021/06/02 11:57:45;;;;;;;6.15;5.10;;;;;;;24.67;nan;101310.72;5015581;28;20495;-78
2021/06/02 12:00:29;;;;;;;7.78;5.90;;;;;;;24.70;nan;101321.31;5033459;28;20029;-80
2021/06/02 12:03:03;;;;;;;;;;;;;;;25.06;nan;101322.47;5025369;28;20029;-80
2021/06/02 12:05:37;;;;;;;7.22;4.22;;;;;;;24.98;nan;101312.16;5026916;28;19925;-79
2021/06/02 12:08:06;;;;;;;41.22;36.00;;;;;;;24.80;nan;101312.56;5027905;28;20394;-79
2021/06/02 12:10:36;;;;;;;12.20;8.75;;;;;;;24.91;nan;101320.78;5027790;28;20041;-80
2021/06/02 12:13:12;;;;;;;5.18;4.15;;;;;;;24.97;nan;101317.63;5032326;28;20405;-80
2021/06/02 12:15:53;;;;;;;5.63;4.32;;;;;;;24.99;nan;101324.69;5026004;28;20033;-82
2021/06/02 12:18:40;;;;;;;6.63;4.95;;;;;;;24.74;nan;101303.06;5010555;28;20044;-79
2021/06/02 12:21:23;;;;;;;4.32;3.90;;;;;;;24.95;nan;101311.47;5028647;28;20045;-80
2021/06/02 12:24:10;;;;;;;5.05;3.95;;;;;;;25.18;nan;101309.91;5022834;28;20406;-82
2021/06/02 12:26:47;;;;;;;5.00;4.50;;;;;;;24.80;nan;101304.44;5029375;28;20053;-79
2021/06/02 12:29:19;;;;;;;5.28;4.38;;;;;;;24.71;nan;101312.22;5033840;28;20038;-78